sensor_id;sensor_type;location;lat;lon;timestamp;P1;durP1;ratioP1;P2;durP2;ratioP2
42802;SDS011;28447;48.682;9.022;2023-06-14T04:00:36;10.43;;;7.73;;
42802;SDS011;28447;48.682;9.022;2023-06-14T04:03:01;11.30;;;8.17;;
42802;SDS011;28447;48.682;9.022;2023-06-14T04:05:29;9.43;;;7.67;;
42802;SDS011;28447;48.682;9.022;2023-06-14T04:07:55;9.40;;;7.50;;
42802;SDS011;28447;48.682;9.022;2023-06-14T04:10:22;9.17;;;7.77;;
42802;SDS011;28447;48.682;9.022;2023-06-14T04:12:48;17.00;;;7.30;;
42802;SDS011;28447;48.682;9.022;2023-06-14T04:15:14;13.97;;;7.80;;
42802;SDS011;28447;48.682;9.022;2023-06-14T04:17:39;11.47;;;7.57;;
42802;SDS011;28447;48.682;9.022;2023-06-14T04:20:05;9.60;;;8.33;;
42802;SDS011;28447;48.682;9.022;2023-06-14T04:22:33;11.77;;;8.17;;
42802;SDS011;28447;48.682;9.022;2023-06-14T04:24:59;10.83;;;7.20;;
42802;SDS011;28447;48.682;9.022;2023-06-14T04:27:28;9.73;;;7.67;;
42802;SDS011;28447;48.682;9.022;2023-06-14T04:29:56;12.23;;;8.50;;
42802;SDS011;28447;48.682;9.022;2023-06-14T04:32:26;11.60;;;8.47;;
42802;SDS011;28447;48.682;9.022;2023-06-14T04:34:55;11.50;;;8.63;;
42802;SDS011;28447;48.682;9.022;2023-06-14T04:37:21;11.27;;;7.77;;
42802;SDS011;28447;48.682;9.022;2023-06-14T04:39:48;9.83;;;7.90;;
42802;SDS011;28447;48.682;9.022;2023-06-14T04:42:14;12.67;;;7.80;;
42802;SDS011;28447;48.682;9.022;2023-06-14T04:44:41;10.50;;;7.30;;
42802;SDS011;28447;48.682;9.022;2023-06-14T04:47:08;12.97;;;8.83;;
42802;SDS011;28447;48.682;9.022;2023-06-14T04:49:34;10.80;;;7.77;;
42802;SDS011;28447;48.682;9.022;2023-06-14T04:52:00;9.50;;;7.30;;
42802;SDS011;28447;48.682;9.022;2023-06-14T04:54:27;16.77;;;7.73;;
42802;SDS011;28447;48.682;9.022;2023-06-14T04:56:56;11.40;;;7.63;;
42802;SDS011;28447;48.682;9.022;2023-06-14T04:59:22;11.00;;;7.90;;
42802;SDS011;28447;48.682;9.022;2023-06-14T05:01:50;9.97;;;7.97;;
42802;SDS011;28447;48.682;9.022;2023-06-14T05:04:18;9.60;;;7.70;;
42802;SDS011;28447;48.682;9.022;2023-06-14T05:06:44;12.43;;;8.07;;
42802;SDS011;28447;48.682;9.022;2023-06-14T05:09:12;19.83;;;8.40;;
42802;SDS011;28447;48.682;9.022;2023-06-14T05:11:39;12.70;;;8.00;;
42802;SDS011;28447;48.682;9.022;2023-06-14T05:14:05;10.03;;;8.00;;
42802;SDS011;28447;48.682;9.022;2023-06-14T05:16:31;22.20;;;8.87;;
42802;SDS011;28447;48.682;9.022;2023-06-14T05:18:57;10.10;;;8.70;;
42802;SDS011;28447;48.682;9.022;2023-06-14T05:21:23;12.47;;;8.90;;
42802;SDS011;28447;48.682;9.022;2023-06-14T05:23:49;11.10;;;8.00;;
42802;SDS011;28447;48.682;9.022;2023-06-14T05:26:16;13.30;;;8.30;;
42802;SDS011;28447;48.682;9.022;2023-06-14T05:28:41;11.60;;;8.67;;
42802;SDS011;28447;48.682;9.022;2023-06-14T05:31:07;10.97;;;7.53;;
42802;SDS011;28447;48.682;9.022;2023-06-14T05:33:33;10.37;;;7.97;;
42802;SDS011;28447;48.682;9.022;2023-06-14T05:35:58;12.30;;;8.10;;
42802;SDS011;28447;48.682;9.022;2023-06-14T05:38:24;11.23;;;8.07;;
42802;SDS011;28447;48.682;9.022;2023-06-14T05:40:50;9.23;;;7.53;;
42802;SDS011;28447;48.682;9.022;2023-06-14T05:43:16;11.23;;;7.80;;
42802;SDS011;28447;48.682;9.022;2023-06-14T05:45:41;10.40;;;8.23;;
42802;SDS011;28447;48.682;9.022;2023-06-14T05:48:07;14.07;;;9.17;;
42802;SDS011;28447;48.682;9.022;2023-06-14T05:50:33;13.90;;;8.10;;
42802;SDS011;28447;48.682;9.022;2023-06-14T05:52:58;8.73;;;7.67;;
42802;SDS011;28447;48.682;9.022;2023-06-14T05:55:24;14.70;;;8.10;;
42802;SDS011;28447;48.682;9.022;2023-06-14T05:57:50;12.70;;;7.83;;
42802;SDS011;28447;48.682;9.022;2023-06-14T06:00:17;12.33;;;7.60;;
42802;SDS011;28447;48.682;9.022;2023-06-14T06:02:43;11.20;;;7.30;;
42802;SDS011;28447;48.682;9.022;2023-06-14T06:05:09;9.53;;;7.00;;
42802;SDS011;28447;48.682;9.022;2023-06-14T06:07:36;11.77;;;6.73;;
42802;SDS011;28447;48.682;9.022;2023-06-14T06:10:02;9.87;;;6.73;;
42802;SDS011;28447;48.682;9.022;2023-06-14T06:12:29;9.03;;;6.00;;
42802;SDS011;28447;48.682;9.022;2023-06-14T06:14:54;6.47;;;5.70;;
42802;SDS011;28447;48.682;9.022;2023-06-14T06:17:20;9.53;;;5.73;;
42802;SDS011;28447;48.682;9.022;2023-06-14T06:19:46;8.77;;;5.90;;
42802;SDS011;28447;48.682;9.022;2023-06-14T06:22:12;8.37;;;6.53;;
42802;SDS011;28447;48.682;9.022;2023-06-14T06:24:37;7.83;;;6.10;;
42802;SDS011;28447;48.682;9.022;2023-06-14T06:27:03;6.67;;;5.73;;
42802;SDS011;28447;48.682;9.022;2023-06-14T06:29:29;6.73;;;5.90;;
42802;SDS011;28447;48.682;9.022;2023-06-14T06:31:54;8.83;;;6.10;;
42802;SDS011;28447;48.682;9.022;2023-06-14T06:34:21;7.47;;;5.70;;
42802;SDS011;28447;48.682;9.022;2023-06-14T06:36:47;7.63;;;5.90;;
42802;SDS011;28447;48.682;9.022;2023-06-14T06:39:13;10.77;;;6.53;;
42802;SDS011;28447;48.682;9.022;2023-06-14T06:41:40;7.57;;;5.47;;
42802;SDS011;28447;48.682;9.022;2023-06-14T06:44:06;8.03;;;6.57;;
42802;SDS011;28447;48.682;9.022;2023-06-14T06:46:32;11.40;;;6.27;;
42802;SDS011;28447;48.682;9.022;2023-06-14T06:48:58;8.63;;;6.50;;
42802;SDS011;28447;48.682;9.022;2023-06-14T06:51:25;7.40;;;5.83;;
42802;SDS011;28447;48.682;9.022;2023-06-14T06:53:54;7.10;;;5.80;;
42802;SDS011;28447;48.682;9.022;2023-06-14T06:56:20;7.13;;;5.97;;
42802;SDS011;28447;48.682;9.022;2023-06-14T06:58:51;8.07;;;6.73;;
42802;SDS011;28447;48.682;9.022;2023-06-14T07:01:17;9.63;;;5.93;;
42802;SDS011;28447;48.682;9.022;2023-06-14T07:03:43;7.53;;;6.10;;
42802;SDS011;28447;48.682;9.022;2023-06-14T07:06:09;8.47;;;6.13;;
42802;SDS011;28447;48.682;9.022;2023-06-14T07:08:35;6.87;;;6.17;;
42802;SDS011;28447;48.682;9.022;2023-06-14T07:11:03;7.30;;;6.20;;
42802;SDS011;28447;48.682;9.022;2023-06-14T07:13:29;14.57;;;7.70;;
42802;SDS011;28447;48.682;9.022;2023-06-14T07:15:56;7.07;;;5.70;;
42802;SDS011;28447;48.682;9.022;2023-06-14T07:18:23;7.10;;;6.40;;
42802;SDS011;28447;48.682;9.022;2023-06-14T07:20:49;10.53;;;5.70;;
42802;SDS011;28447;48.682;9.022;2023-06-14T07:23:15;6.37;;;5.67;;
42802;SDS011;28447;48.682;9.022;2023-06-14T07:25:41;6.50;;;5.90;;
42802;SDS011;28447;48.682;9.022;2023-06-14T07:28:07;6.53;;;5.83;;
42802;SDS011;28447;48.682;9.022;2023-06-14T07:30:32;7.47;;;5.83;;
42802;SDS011;28447;48.682;9.022;2023-06-14T07:32:58;6.80;;;6.10;;
42802;SDS011;28447;48.682;9.022;2023-06-14T07:35:24;7.77;;;6.20;;
42802;SDS011;28447;48.682;9.022;2023-06-14T07:37:49;10.10;;;5.77;;
42802;SDS011;28447;48.682;9.022;2023-06-14T07:40:15;6.40;;;5.80;;
42802;SDS011;28447;48.682;9.022;2023-06-14T07:42:41;9.93;;;5.97;;
42802;SDS011;28447;48.682;9.022;2023-06-14T07:45:07;6.67;;;5.60;;
42802;SDS011;28447;48.682;9.022;2023-06-14T07:47:33;6.53;;;5.90;;
42802;SDS011;28447;48.682;9.022;2023-06-14T07:49:59;7.27;;;5.87;;
42802;SDS011;28447;48.682;9.022;2023-06-14T07:52:24;7.83;;;5.60;;
42802;SDS011;28447;48.682;9.022;2023-06-14T07:54:50;8.17;;;6.57;;
42802;SDS011;28447;48.682;9.022;2023-06-14T07:57:16;7.77;;;6.30;;
42802;SDS011;28447;48.682;9.022;2023-06-14T07:59:41;7.03;;;6.13;;
42802;SDS011;28447;48.682;9.022;2023-06-14T08:02:07;7.33;;;5.23;;
42802;SDS011;28447;48.682;9.022;2023-06-14T08:04:33;6.90;;;6.00;;
42802;SDS011;28447;48.682;9.022;2023-06-14T08:06:59;8.27;;;6.10;;
42802;SDS011;28447;48.682;9.022;2023-06-14T08:09:25;12.03;;;6.67;;
42802;SDS011;28447;48.682;9.022;2023-06-14T08:11:52;6.53;;;5.90;;
42802;SDS011;28447;48.682;9.022;2023-06-14T08:14:18;9.67;;;6.70;;
42802;SDS011;28447;48.682;9.022;2023-06-14T08:16:44;7.40;;;5.73;;
42802;SDS011;28447;48.682;9.022;2023-06-14T08:19:09;12.30;;;6.40;;
42802;SDS011;28447;48.682;9.022;2023-06-14T08:21:35;8.33;;;7.53;;
42802;SDS011;28447;48.682;9.022;2023-06-14T08:24:01;9.10;;;6.67;;
42802;SDS011;28447;48.682;9.022;2023-06-14T08:26:28;7.90;;;6.33;;
42802;SDS011;28447;48.682;9.022;2023-06-14T08:28:55;9.53;;;7.00;;
42802;SDS011;28447;48.682;9.022;2023-06-14T08:31:20;7.87;;;6.77;;
42802;SDS011;28447;48.682;9.022;2023-06-14T08:33:47;7.33;;;6.63;;
42802;SDS011;28447;48.682;9.022;2023-06-14T08:36:12;9.50;;;7.47;;
42802;SDS011;28447;48.682;9.022;2023-06-14T08:38:39;9.52;;;6.35;;
42802;SDS011;28447;48.682;9.022;2023-06-14T08:41:05;8.10;;;7.03;;
42802;SDS011;28447;48.682;9.022;2023-06-14T08:43:31;8.90;;;6.83;;
42802;SDS011;28447;48.682;9.022;2023-06-14T08:45:58;7.55;;;6.85;;
42802;SDS011;28447;48.682;9.022;2023-06-14T08:48:26;9.38;;;6.82;;
42802;SDS011;28447;48.682;9.022;2023-06-14T08:50:53;7.20;;;6.60;;
42802;SDS011;28447;48.682;9.022;2023-06-14T08:53:26;6.90;;;6.20;;
42802;SDS011;28447;48.682;9.022;2023-06-14T08:55:57;7.50;;;6.80;;
42802;SDS011;28447;48.682;9.022;2023-06-14T08:58:26;10.77;;;6.78;;
42802;SDS011;28447;48.682;9.022;2023-06-14T09:00:54;8.57;;;7.32;;
42802;SDS011;28447;48.682;9.022;2023-06-14T09:03:21;9.32;;;7.00;;
42802;SDS011;28447;48.682;9.022;2023-06-14T09:05:48;7.05;;;6.43;;
42802;SDS011;28447;48.682;9.022;2023-06-14T09:08:15;10.80;;;6.45;;
42802;SDS011;28447;48.682;9.022;2023-06-14T09:10:41;11.55;;;7.05;;
42802;SDS011;28447;48.682;9.022;2023-06-14T09:13:06;10.48;;;7.15;;
42802;SDS011;28447;48.682;9.022;2023-06-14T09:15:32;7.13;;;6.47;;
42802;SDS011;28447;48.682;9.022;2023-06-14T09:18:01;8.38;;;6.35;;
42802;SDS011;28447;48.682;9.022;2023-06-14T09:20:28;7.43;;;6.72;;
42802;SDS011;28447;48.682;9.022;2023-06-14T09:22:55;7.55;;;6.68;;
42802;SDS011;28447;48.682;9.022;2023-06-14T09:25:20;10.68;;;6.75;;
42802;SDS011;28447;48.682;9.022;2023-06-14T09:27:47;8.88;;;6.72;;
42802;SDS011;28447;48.682;9.022;2023-06-14T09:30:13;8.25;;;7.35;;
42802;SDS011;28447;48.682;9.022;2023-06-14T09:32:39;11.82;;;6.32;;
42802;SDS011;28447;48.682;9.022;2023-06-14T09:35:06;12.85;;;7.00;;
42802;SDS011;28447;48.682;9.022;2023-06-14T09:37:32;9.43;;;7.20;;
42802;SDS011;28447;48.682;9.022;2023-06-14T09:39:59;6.57;;;5.88;;
42802;SDS011;28447;48.682;9.022;2023-06-14T09:42:25;8.82;;;6.38;;
42802;SDS011;28447;48.682;9.022;2023-06-14T09:44:54;8.38;;;6.38;;
42802;SDS011;28447;48.682;9.022;2023-06-14T09:47:21;8.43;;;6.57;;
42802;SDS011;28447;48.682;9.022;2023-06-14T09:49:48;8.02;;;6.45;;
42802;SDS011;28447;48.682;9.022;2023-06-14T09:52:15;7.93;;;6.90;;
42802;SDS011;28447;48.682;9.022;2023-06-14T09:54:43;7.10;;;6.40;;
42802;SDS011;28447;48.682;9.022;2023-06-14T09:57:11;7.03;;;6.30;;
42802;SDS011;28447;48.682;9.022;2023-06-14T09:59:41;7.10;;;6.40;;
42802;SDS011;28447;48.682;9.022;2023-06-14T10:02:25;8.60;;;6.30;;
42802;SDS011;28447;48.682;9.022;2023-06-14T10:05:03;6.95;;;5.95;;
42802;SDS011;28447;48.682;9.022;2023-06-14T10:07:32;9.15;;;6.30;;
42802;SDS011;28447;48.682;9.022;2023-06-14T10:10:19;6.47;;;5.88;;
42802;SDS011;28447;48.682;9.022;2023-06-14T10:12:46;6.70;;;6.07;;
42802;SDS011;28447;48.682;9.022;2023-06-14T10:15:15;6.45;;;5.63;;
42802;SDS011;28447;48.682;9.022;2023-06-14T10:17:47;6.82;;;6.13;;
42802;SDS011;28447;48.682;9.022;2023-06-14T10:22:49;7.53;;;5.93;;
42802;SDS011;28447;48.682;9.022;2023-06-14T10:25:29;9.02;;;7.15;;
42802;SDS011;28447;48.682;9.022;2023-06-14T10:33:50;9.95;;;7.82;;
42802;SDS011;28447;48.682;9.022;2023-06-14T10:41:49;7.30;;;6.57;;
42802;SDS011;28447;48.682;9.022;2023-06-14T10:46:46;7.32;;;5.90;;
42802;SDS011;28447;48.682;9.022;2023-06-14T10:49:12;11.55;;;7.13;;
42802;SDS011;28447;48.682;9.022;2023-06-14T10:51:51;9.48;;;7.40;;
42802;SDS011;28447;48.682;9.022;2023-06-14T10:54:21;7.72;;;6.78;;
42802;SDS011;28447;48.682;9.022;2023-06-14T10:56:51;7.80;;;7.05;;
42802;SDS011;28447;48.682;9.022;2023-06-14T10:59:18;9.32;;;6.95;;
42802;SDS011;28447;48.682;9.022;2023-06-14T11:01:53;7.43;;;6.70;;
42802;SDS011;28447;48.682;9.022;2023-06-14T11:04:46;7.78;;;6.88;;
42802;SDS011;28447;48.682;9.022;2023-06-14T11:10:20;9.07;;;6.90;;
42802;SDS011;28447;48.682;9.022;2023-06-14T11:13:01;11.63;;;7.22;;
42802;SDS011;28447;48.682;9.022;2023-06-14T11:15:28;7.28;;;6.68;;
42802;SDS011;28447;48.682;9.022;2023-06-14T11:18:01;6.65;;;5.95;;
42802;SDS011;28447;48.682;9.022;2023-06-14T11:20:32;9.95;;;6.35;;
42802;SDS011;28447;48.682;9.022;2023-06-14T11:22:59;7.88;;;7.18;;
42802;SDS011;28447;48.682;9.022;2023-06-14T11:25:25;7.63;;;6.75;;
42802;SDS011;28447;48.682;9.022;2023-06-14T11:27:53;6.72;;;6.13;;
42802;SDS011;28447;48.682;9.022;2023-06-14T11:30:19;7.72;;;6.03;;
42802;SDS011;28447;48.682;9.022;2023-06-14T11:32:48;7.50;;;6.70;;
42802;SDS011;28447;48.682;9.022;2023-06-14T11:35:15;8.32;;;6.25;;
42802;SDS011;28447;48.682;9.022;2023-06-14T11:37:42;10.38;;;6.72;;
42802;SDS011;28447;48.682;9.022;2023-06-14T11:40:09;12.52;;;6.90;;
42802;SDS011;28447;48.682;9.022;2023-06-14T11:42:37;7.70;;;6.93;;
42802;SDS011;28447;48.682;9.022;2023-06-14T11:45:04;8.80;;;6.85;;
42802;SDS011;28447;48.682;9.022;2023-06-14T11:47:33;6.93;;;6.22;;
42802;SDS011;28447;48.682;9.022;2023-06-14T11:50:00;7.95;;;6.00;;
42802;SDS011;28447;48.682;9.022;2023-06-14T11:52:27;7.50;;;6.20;;
42802;SDS011;28447;48.682;9.022;2023-06-14T11:54:53;8.85;;;6.22;;
42802;SDS011;28447;48.682;9.022;2023-06-14T11:57:19;7.35;;;6.60;;
42802;SDS011;28447;48.682;9.022;2023-06-14T11:59:45;8.30;;;6.20;;
42802;SDS011;28447;48.682;9.022;2023-06-14T12:02:15;9.27;;;6.63;;
42802;SDS011;28447;48.682;9.022;2023-06-14T12:04:46;7.03;;;6.13;;
42802;SDS011;28447;48.682;9.022;2023-06-14T12:07:16;6.80;;;6.30;;
42802;SDS011;28447;48.682;9.022;2023-06-14T12:12:22;7.50;;;6.53;;
42802;SDS011;28447;48.682;9.022;2023-06-14T12:14:50;7.82;;;6.43;;
42802;SDS011;28447;48.682;9.022;2023-06-14T12:17:17;9.10;;;6.57;;
42802;SDS011;28447;48.682;9.022;2023-06-14T12:19:43;10.75;;;7.03;;
42802;SDS011;28447;48.682;9.022;2023-06-14T12:22:11;6.95;;;5.90;;
42802;SDS011;28447;48.682;9.022;2023-06-14T12:24:37;7.28;;;6.57;;
42802;SDS011;28447;48.682;9.022;2023-06-14T12:27:03;8.80;;;6.95;;
42802;SDS011;28447;48.682;9.022;2023-06-14T12:29:32;8.00;;;6.40;;
42802;SDS011;28447;48.682;9.022;2023-06-14T12:31:58;7.90;;;6.30;;
42802;SDS011;28447;48.682;9.022;2023-06-14T12:34:24;6.80;;;6.07;;
42802;SDS011;28447;48.682;9.022;2023-06-14T12:36:50;7.40;;;6.32;;
42802;SDS011;28447;48.682;9.022;2023-06-14T12:39:16;12.40;;;6.43;;
42802;SDS011;28447;48.682;9.022;2023-06-14T12:41:42;6.43;;;5.82;;
42802;SDS011;28447;48.682;9.022;2023-06-14T12:44:07;6.18;;;5.68;;
42802;SDS011;28447;48.682;9.022;2023-06-14T12:46:33;6.90;;;6.22;;
42802;SDS011;28447;48.682;9.022;2023-06-14T12:49:04;6.75;;;5.90;;
42802;SDS011;28447;48.682;9.022;2023-06-14T12:51:31;6.40;;;5.80;;
42802;SDS011;28447;48.682;9.022;2023-06-14T12:53:57;7.68;;;6.60;;
42802;SDS011;28447;48.682;9.022;2023-06-14T12:56:23;6.82;;;6.22;;
42802;SDS011;28447;48.682;9.022;2023-06-14T12:58:49;6.43;;;5.78;;
42802;SDS011;28447;48.682;9.022;2023-06-14T13:01:14;7.15;;;6.53;;
42802;SDS011;28447;48.682;9.022;2023-06-14T13:03:40;6.60;;;6.10;;
42802;SDS011;28447;48.682;9.022;2023-06-14T13:06:06;7.32;;;5.97;;
42802;SDS011;28447;48.682;9.022;2023-06-14T13:08:31;7.07;;;5.70;;
42802;SDS011;28447;48.682;9.022;2023-06-14T13:10:57;10.23;;;6.13;;
42802;SDS011;28447;48.682;9.022;2023-06-14T13:13:23;6.57;;;5.88;;
42802;SDS011;28447;48.682;9.022;2023-06-14T13:15:49;7.82;;;5.35;;
42802;SDS011;28447;48.682;9.022;2023-06-14T13:18:15;6.57;;;5.82;;
42802;SDS011;28447;48.682;9.022;2023-06-14T13:20:41;6.20;;;5.60;;
42802;SDS011;28447;48.682;9.022;2023-06-14T13:23:07;6.30;;;5.70;;
42802;SDS011;28447;48.682;9.022;2023-06-14T13:25:34;6.63;;;5.97;;
42802;SDS011;28447;48.682;9.022;2023-06-14T13:28:01;7.53;;;6.10;;
42802;SDS011;28447;48.682;9.022;2023-06-14T13:30:29;6.30;;;5.65;;
42802;SDS011;28447;48.682;9.022;2023-06-14T13:32:55;8.80;;;5.72;;
42802;SDS011;28447;48.682;9.022;2023-06-14T13:35:21;6.10;;;5.50;;
42802;SDS011;28447;48.682;9.022;2023-06-14T13:37:48;6.35;;;5.85;;
42802;SDS011;28447;48.682;9.022;2023-06-14T13:40:13;7.35;;;6.15;;
42802;SDS011;28447;48.682;9.022;2023-06-14T13:42:39;9.55;;;5.50;;
42802;SDS011;28447;48.682;9.022;2023-06-14T13:45:05;6.40;;;5.80;;
42802;SDS011;28447;48.682;9.022;2023-06-14T13:47:32;6.05;;;5.55;;
42802;SDS011;28447;48.682;9.022;2023-06-14T13:49:57;6.75;;;6.15;;
42802;SDS011;28447;48.682;9.022;2023-06-14T13:52:23;7.90;;;6.10;;
42802;SDS011;28447;48.682;9.022;2023-06-14T13:54:49;5.82;;;5.32;;
42802;SDS011;28447;48.682;9.022;2023-06-14T13:57:16;7.25;;;6.50;;
42802;SDS011;28447;48.682;9.022;2023-06-14T13:59:42;14.27;;;5.93;;
42802;SDS011;28447;48.682;9.022;2023-06-14T14:02:11;6.30;;;5.70;;
42802;SDS011;28447;48.682;9.022;2023-06-14T14:04:37;5.97;;;5.47;;
42802;SDS011;28447;48.682;9.022;2023-06-14T14:07:04;6.65;;;5.90;;
42802;SDS011;28447;48.682;9.022;2023-06-14T14:09:31;14.95;;;5.65;;
42802;SDS011;28447;48.682;9.022;2023-06-14T14:12:00;7.60;;;6.15;;
42802;SDS011;28447;48.682;9.022;2023-06-14T14:14:27;6.75;;;6.05;;
42802;SDS011;28447;48.682;9.022;2023-06-14T14:16:53;6.10;;;5.60;;
42802;SDS011;28447;48.682;9.022;2023-06-14T14:19:22;5.38;;;4.97;;
42802;SDS011;28447;48.682;9.022;2023-06-14T14:21:48;6.05;;;5.55;;
42802;SDS011;28447;48.682;9.022;2023-06-14T14:24:14;6.57;;;5.90;;
42802;SDS011;28447;48.682;9.022;2023-06-14T14:26:40;7.07;;;5.38;;
42802;SDS011;28447;48.682;9.022;2023-06-14T14:29:06;5.97;;;5.47;;
42802;SDS011;28447;48.682;9.022;2023-06-14T14:31:32;8.95;;;5.88;;
42802;SDS011;28447;48.682;9.022;2023-06-14T14:33:58;5.70;;;5.20;;
42802;SDS011;28447;48.682;9.022;2023-06-14T14:36:24;11.65;;;6.28;;
42802;SDS011;28447;48.682;9.022;2023-06-14T14:38:50;7.90;;;5.97;;
42802;SDS011;28447;48.682;9.022;2023-06-14T14:41:16;6.25;;;5.75;;
42802;SDS011;28447;48.682;9.022;2023-06-14T14:43:42;7.53;;;5.90;;
42802;SDS011;28447;48.682;9.022;2023-06-14T14:46:08;6.43;;;5.90;;
42802;SDS011;28447;48.682;9.022;2023-06-14T14:48:33;6.97;;;6.00;;
42802;SDS011;28447;48.682;9.022;2023-06-14T14:50:59;14.18;;;5.53;;
42802;SDS011;28447;48.682;9.022;2023-06-14T14:53:25;6.03;;;5.20;;
42802;SDS011;28447;48.682;9.022;2023-06-14T14:55:50;6.95;;;6.10;;
42802;SDS011;28447;48.682;9.022;2023-06-14T14:58:16;6.35;;;5.85;;
42802;SDS011;28447;48.682;9.022;2023-06-14T15:00:45;6.68;;;5.72;;
42802;SDS011;28447;48.682;9.022;2023-06-14T15:03:11;5.68;;;5.18;;
42802;SDS011;28447;48.682;9.022;2023-06-14T15:05:37;6.38;;;5.78;;
42802;SDS011;28447;48.682;9.022;2023-06-14T15:08:03;6.40;;;5.80;;
42802;SDS011;28447;48.682;9.022;2023-06-14T15:10:30;6.13;;;5.47;;
42802;SDS011;28447;48.682;9.022;2023-06-14T15:12:56;5.50;;;5.10;;
42802;SDS011;28447;48.682;9.022;2023-06-14T15:15:22;7.40;;;6.18;;
42802;SDS011;28447;48.682;9.022;2023-06-14T15:17:47;7.82;;;6.05;;
42802;SDS011;28447;48.682;9.022;2023-06-14T15:20:13;7.75;;;5.70;;
42802;SDS011;28447;48.682;9.022;2023-06-14T15:22:39;6.13;;;5.65;;
42802;SDS011;28447;48.682;9.022;2023-06-14T15:25:05;6.65;;;6.05;;
42802;SDS011;28447;48.682;9.022;2023-06-14T15:27:31;8.18;;;6.63;;
42802;SDS011;28447;48.682;9.022;2023-06-14T15:29:57;10.75;;;6.00;;
42802;SDS011;28447;48.682;9.022;2023-06-14T15:32:23;6.35;;;5.85;;
42802;SDS011;28447;48.682;9.022;2023-06-14T15:34:48;8.15;;;6.15;;
42802;SDS011;28447;48.682;9.022;2023-06-14T15:37:14;7.00;;;6.35;;
42802;SDS011;28447;48.682;9.022;2023-06-14T15:39:40;7.00;;;6.30;;
42802;SDS011;28447;48.682;9.022;2023-06-14T15:42:05;6.53;;;5.93;;
42802;SDS011;28447;48.682;9.022;2023-06-14T15:44:32;6.82;;;5.95;;
42802;SDS011;28447;48.682;9.022;2023-06-14T15:46:58;7.68;;;6.50;;
42802;SDS011;28447;48.682;9.022;2023-06-14T15:49:24;8.18;;;6.20;;
42802;SDS011;28447;48.682;9.022;2023-06-14T15:51:50;6.32;;;5.70;;
42802;SDS011;28447;48.682;9.022;2023-06-14T15:54:16;6.57;;;5.97;;
42802;SDS011;28447;48.682;9.022;2023-06-14T15:56:42;7.53;;;6.47;;
42802;SDS011;28447;48.682;9.022;2023-06-14T15:59:07;6.57;;;5.97;;
42802;SDS011;28447;48.682;9.022;2023-06-14T16:01:33;7.65;;;6.22;;
42802;SDS011;28447;48.682;9.022;2023-06-14T16:03:59;6.82;;;6.22;;
42802;SDS011;28447;48.682;9.022;2023-06-14T16:06:25;8.50;;;6.00;;
42802;SDS011;28447;48.682;9.022;2023-06-14T16:08:51;9.13;;;6.13;;
42802;SDS011;28447;48.682;9.022;2023-06-14T16:11:17;6.75;;;6.18;;
42802;SDS011;28447;48.682;9.022;2023-06-14T16:13:45;6.43;;;5.93;;
42802;SDS011;28447;48.682;9.022;2023-06-14T16:16:11;6.88;;;6.18;;
42802;SDS011;28447;48.682;9.022;2023-06-14T16:18:37;9.07;;;5.60;;
42802;SDS011;28447;48.682;9.022;2023-06-14T16:21:03;8.02;;;5.60;;
42802;SDS011;28447;48.682;9.022;2023-06-14T16:23:31;6.93;;;6.07;;
42802;SDS011;28447;48.682;9.022;2023-06-14T16:25:57;9.02;;;5.55;;
42802;SDS011;28447;48.682;9.022;2023-06-14T16:28:24;7.70;;;6.57;;
42802;SDS011;28447;48.682;9.022;2023-06-14T16:30:49;6.57;;;6.07;;
42802;SDS011;28447;48.682;9.022;2023-06-14T16:33:15;7.03;;;6.40;;
42802;SDS011;28447;48.682;9.022;2023-06-14T16:35:41;6.78;;;6.05;;
42802;SDS011;28447;48.682;9.022;2023-06-14T16:38:07;7.03;;;6.10;;
42802;SDS011;28447;48.682;9.022;2023-06-14T16:40:32;8.35;;;6.93;;
42802;SDS011;28447;48.682;9.022;2023-06-14T16:42:58;7.05;;;6.40;;
42802;SDS011;28447;48.682;9.022;2023-06-14T16:45:24;7.28;;;6.57;;
42802;SDS011;28447;48.682;9.022;2023-06-14T16:47:50;11.50;;;5.93;;
42802;SDS011;28447;48.682;9.022;2023-06-14T16:50:16;12.20;;;6.28;;
42802;SDS011;28447;48.682;9.022;2023-06-14T16:52:41;6.18;;;5.63;;
42802;SDS011;28447;48.682;9.022;2023-06-14T16:55:08;8.38;;;5.95;;
42802;SDS011;28447;48.682;9.022;2023-06-14T16:57:33;11.00;;;6.40;;
42802;SDS011;28447;48.682;9.022;2023-06-14T16:59:59;9.95;;;7.38;;
42802;SDS011;28447;48.682;9.022;2023-06-14T17:02:25;8.50;;;6.37;;
42802;SDS011;28447;48.682;9.022;2023-06-14T17:04:51;9.17;;;6.40;;
42802;SDS011;28447;48.682;9.022;2023-06-14T17:07:16;13.10;;;6.43;;
42802;SDS011;28447;48.682;9.022;2023-06-14T17:09:42;7.28;;;6.53;;
42802;SDS011;28447;48.682;9.022;2023-06-14T17:12:08;6.37;;;5.73;;
42802;SDS011;28447;48.682;9.022;2023-06-14T17:14:33;10.48;;;5.90;;
42802;SDS011;28447;48.682;9.022;2023-06-14T17:16:59;7.28;;;5.68;;
42802;SDS011;28447;48.682;9.022;2023-06-14T17:19:25;8.02;;;5.85;;
42802;SDS011;28447;48.682;9.022;2023-06-14T17:21:51;7.75;;;6.57;;
42802;SDS011;28447;48.682;9.022;2023-06-14T17:24:18;6.47;;;5.63;;
42802;SDS011;28447;48.682;9.022;2023-06-14T17:26:44;8.77;;;6.47;;
42802;SDS011;28447;48.682;9.022;2023-06-14T17:29:10;6.87;;;6.27;;
42802;SDS011;28447;48.682;9.022;2023-06-14T17:31:36;7.60;;;6.10;;
42802;SDS011;28447;48.682;9.022;2023-06-14T17:34:01;8.70;;;6.33;;
42802;SDS011;28447;48.682;9.022;2023-06-14T17:36:27;6.77;;;5.90;;
42802;SDS011;28447;48.682;9.022;2023-06-14T17:38:53;8.87;;;6.10;;
42802;SDS011;28447;48.682;9.022;2023-06-14T17:41:19;6.80;;;5.67;;
42802;SDS011;28447;48.682;9.022;2023-06-14T17:43:47;7.10;;;6.50;;
42802;SDS011;28447;48.682;9.022;2023-06-14T17:46:13;7.60;;;6.30;;
42802;SDS011;28447;48.682;9.022;2023-06-14T17:48:38;6.90;;;6.17;;
42802;SDS011;28447;48.682;9.022;2023-06-14T17:51:05;6.83;;;6.13;;
42802;SDS011;28447;48.682;9.022;2023-06-14T17:53:31;7.70;;;5.80;;
42802;SDS011;28447;48.682;9.022;2023-06-14T17:55:57;8.73;;;6.73;;
42802;SDS011;28447;48.682;9.022;2023-06-14T17:58:24;7.17;;;6.47;;
42802;SDS011;28447;48.682;9.022;2023-06-14T18:00:50;6.57;;;5.93;;
42802;SDS011;28447;48.682;9.022;2023-06-14T18:03:16;8.27;;;6.47;;
42802;SDS011;28447;48.682;9.022;2023-06-14T18:05:43;8.10;;;6.27;;
42802;SDS011;28447;48.682;9.022;2023-06-14T18:08:09;7.83;;;6.10;;
42802;SDS011;28447;48.682;9.022;2023-06-14T18:10:35;7.40;;;6.43;;
42802;SDS011;28447;48.682;9.022;2023-06-14T18:13:02;8.40;;;6.20;;
42802;SDS011;28447;48.682;9.022;2023-06-14T18:15:28;6.90;;;6.00;;
42802;SDS011;28447;48.682;9.022;2023-06-14T18:17:54;7.00;;;6.27;;
42802;SDS011;28447;48.682;9.022;2023-06-14T18:20:20;7.73;;;6.90;;
42802;SDS011;28447;48.682;9.022;2023-06-14T18:22:47;6.33;;;5.77;;
42802;SDS011;28447;48.682;9.022;2023-06-14T18:25:14;10.90;;;7.27;;
42802;SDS011;28447;48.682;9.022;2023-06-14T18:27:40;6.50;;;5.90;;
42802;SDS011;28447;48.682;9.022;2023-06-14T18:30:08;7.73;;;7.03;;
42802;SDS011;28447;48.682;9.022;2023-06-14T18:32:34;7.27;;;6.50;;
42802;SDS011;28447;48.682;9.022;2023-06-14T18:35:00;6.60;;;5.97;;
42802;SDS011;28447;48.682;9.022;2023-06-14T18:37:26;8.70;;;7.83;;
42802;SDS011;28447;48.682;9.022;2023-06-14T18:39:53;6.90;;;6.03;;
42802;SDS011;28447;48.682;9.022;2023-06-14T18:42:18;6.60;;;5.90;;
42802;SDS011;28447;48.682;9.022;2023-06-14T18:44:45;7.10;;;6.40;;
42802;SDS011;28447;48.682;9.022;2023-06-14T18:47:11;8.53;;;6.23;;
42802;SDS011;28447;48.682;9.022;2023-06-14T18:49:37;7.00;;;6.20;;
42802;SDS011;28447;48.682;9.022;2023-06-14T18:52:04;10.33;;;6.83;;
42802;SDS011;28447;48.682;9.022;2023-06-14T18:54:30;7.53;;;6.00;;
42802;SDS011;28447;48.682;9.022;2023-06-14T18:56:56;13.17;;;6.70;;
42802;SDS011;28447;48.682;9.022;2023-06-14T18:59:22;10.73;;;6.87;;
42802;SDS011;28447;48.682;9.022;2023-06-14T19:01:47;11.40;;;6.17;;
42802;SDS011;28447;48.682;9.022;2023-06-14T19:04:13;9.60;;;6.37;;